Главная страница
METAR-TAF:

METAR-TAF

Аэропорты :

Vamdrup

Кольдинг, Дания

широта: 55-26N, долгота: 009-20E, высота над уровнем моря: 44 м

Текущие метеонаблюдения

Эта сводка был подготовлена 10 минут назад, в 18:20 UTC
Ветер 8 Узел от восточно-юго-восточный
Температура 8°C
Влажность 93%
Давление 1028 hPa

METAR: EKVD 151820Z AUTO 12008KT //// ///////// 08/07 Q1028

Время: 19:30 (18:30 UTC)

Прогноз

Эта сводка был подготовлена 7 часа и 6 минут назад, в 11:24 UTC
Прогноз действительный с 15-го 12 UTC до 15-го 17 UTC
Ветер 8 Узел от юго-юго-восточный
Видимость 10 км и более
Отдельные облака на высоте 3000 фута

TAF: EKVD 151124Z 1512/1517 15008KT 9999 SCT030

Метеонаблюдения и прогнозы для более 4000 аэропортов (сводки METAR и TAF).

Имеющиеся станции представлены на карте желтыми и красными точками.

Чтобы увидеть название станции, наведите на нее мышь.

Затем щелкните, чтобы увидеть метеонаблюдения и метеопрогнозы.

Управление картой: чтобы увеличить масштаб, щелкните зеленые кнопки с черным крестиком; чтобы уменьшить масштаб, щелкните зеленую кнопку с тире; для просмотра соседних карт щелкайте зеленые стрелки.


METAR-TAF: